Time;durP1;ratioP1;P1;durP2;ratioP2;P2;SDS_P1;SDS_P2;PMS_P1;PMS_P2;Temp;Humidity;BMP_temperature;BMP_pressure;BME280_temperature;BME280_humidity;BME280_pressure;Samples;Min_cycle;Max_cycle;Signal;HPM_P1;HPM_P2
2023/07/05 00:01:14;;;;;;;24.90;15.50;;;;;;;16.00;98.55;100124.71;180588;1264;43781;-84
2023/07/05 00:05:17;;;;;;;22.50;14.00;;;;;;;16.02;98.31;100127.54;180560;1264;43872;-84
2023/07/05 00:09:21;;;;;;;23.40;14.70;;;;;;;16.06;97.87;100123.88;180789;1264;59475;-85
2023/07/05 00:13:24;;;;;;;25.30;15.70;;;;;;;15.99;99.21;100118.48;180735;1264;45459;-84
2023/07/05 00:17:35;;;;;;;21.30;15.20;;;;;;;15.81;99.92;100114.84;180684;1264;44237;-83
2023/07/05 00:21:38;;;;;;;15.60;12.10;;;;;;;15.71;100.00;100111.40;180533;1263;44118;-83
2023/07/05 00:25:41;;;;;;;22.90;13.70;;;;;;;15.53;100.00;100109.18;180737;1264;44229;-83
2023/07/05 00:29:45;;;;;;;19.40;13.30;;;;;;;15.40;100.00;100103.11;180601;1265;58346;-83
2023/07/05 00:33:48;;;;;;;21.70;13.60;;;;;;;15.29;100.00;100103.83;180569;1265;44156;-84
2023/07/05 00:37:51;;;;;;;14.50;12.40;;;;;;;15.24;100.00;100105.80;180618;1264;43729;-84
2023/07/05 00:41:55;;;;;;;18.90;14.80;;;;;;;15.24;100.00;100097.22;180568;1264;43879;-83
2023/07/05 00:46:03;;;;;;;21.10;13.50;;;;;;;15.23;100.00;100093.94;180737;1264;44028;-84
2023/07/05 00:50:20;;;;;;;24.00;14.00;;;;;;;15.26;100.00;100092.71;180546;1264;59495;-84
2023/07/05 00:54:32;;;;;;;21.90;14.30;;;;;;;15.28;100.00;100090.20;180484;1265;44666;-83
2023/07/05 01:13:29;;;;;;;24.00;15.20;;;;;;;15.32;100.00;100083.18;142947;1263;57982;-87
2023/07/05 01:17:54;;;;;;;25.60;16.30;;;;;;;15.36;100.00;100082.60;180474;1264;44007;-88
2023/07/05 01:22:04;;;;;;;25.40;15.50;;;;;;;15.35;100.00;100077.73;180514;1264;43993;-88
2023/07/05 01:26:11;;;;;;;18.90;13.90;;;;;;;15.27;100.00;100076.94;180529;1265;43956;-87
2023/07/05 01:30:24;;;;;;;21.80;15.40;;;;;;;15.17;100.00;100078.70;180481;1265;44085;-87
2023/07/05 01:34:34;;;;;;;25.90;16.30;;;;;;;14.87;100.00;100073.17;180648;1265;59196;-87
2023/07/05 01:38:38;;;;;;;20.90;14.30;;;;;;;14.72;100.00;100078.10;180672;1264;43662;-87
2023/07/05 01:42:45;;;;;;;23.00;14.50;;;;;;;14.58;100.00;100082.30;180523;1265;43811;-87
2023/07/05 01:46:49;;;;;;;22.40;15.40;;;;;;;14.52;100.00;100082.65;180495;1264;44051;-87
2023/07/05 01:51:01;;;;;;;35.80;20.60;;;;;;;14.46;100.00;100087.80;180692;1264;43928;-87
2023/07/05 01:55:08;;;;;;;34.20;18.40;;;;;;;14.41;100.00;100083.99;180545;1264;60866;-87
2023/07/05 01:59:15;;;;;;;25.50;14.70;;;;;;;14.44;100.00;100089.34;180532;1264;43890;-87
2023/07/05 02:03:23;;;;;;;23.60;15.00;;;;;;;14.42;100.00;100090.70;180757;1261;86771;-60
2023/07/05 02:07:30;;;;;;;24.60;14.70;;;;;;;14.41;100.00;100089.77;181068;1264;43060;-61
2023/07/05 02:11:34;;;;;;;24.60;14.30;;;;;;;14.35;100.00;100084.98;181244;1263;43452;-60
2023/07/05 02:15:38;;;;;;;24.80;14.70;;;;;;;14.34;100.00;100080.30;181187;1263;58024;-60
2023/07/05 02:19:41;;;;;;;18.40;13.90;;;;;;;14.30;100.00;100079.23;181268;1263;43010;-59
2023/07/05 02:23:45;;;;;;;21.80;13.00;;;;;;;14.21;100.00;100079.83;181148;1264;42940;-60
2023/07/05 02:27:49;;;;;;;25.60;13.80;;;;;;;14.10;100.00;100073.44;181201;1263;43157;-61
2023/07/05 02:31:52;;;;;;;23.10;14.90;;;;;;;14.03;100.00;100072.35;181221;1264;43811;-60
2023/07/05 02:36:11;;;;;;;22.40;12.50;;;;;;;14.03;100.00;100065.73;181234;1263;57775;-59
2023/07/05 02:40:14;;;;;;;23.40;14.90;;;;;;;14.07;100.00;100068.55;181260;1263;43773;-60
2023/07/05 02:44:17;;;;;;;26.30;16.10;;;;;;;13.96;100.00;100061.13;181222;1263;43129;-59
2023/07/05 02:48:20;;;;;;;22.50;16.00;;;;;;;13.84;100.00;100057.60;181189;1263;43761;-59
2023/07/05 02:52:23;;;;;;;20.30;14.40;;;;;;;13.77;100.00;100053.87;181242;1263;43016;-60
2023/07/05 02:56:34;;;;;;;26.60;17.50;;;;;;;13.69;100.00;100055.13;181247;1267;58319;-60
2023/07/05 03:00:37;;;;;;;24.40;17.40;;;;;;;13.64;100.00;100052.87;181182;1264;43026;-61
2023/07/05 03:04:49;;;;;;;27.30;16.70;;;;;;;13.60;100.00;100045.30;181233;1263;43064;-59
2023/07/05 03:08:53;;;;;;;30.40;18.60;;;;;;;13.54;100.00;100040.64;180680;1263;93484;-87
2023/07/05 03:12:56;;;;;;;26.30;16.60;;;;;;;13.58;100.00;100042.76;180422;1265;43832;-87
2023/07/05 03:17:00;;;;;;;30.90;16.00;;;;;;;13.67;100.00;100038.27;180519;1265;58322;-88
2023/07/05 03:21:04;;;;;;;25.00;17.60;;;;;;;13.72;100.00;100038.81;180705;1265;43814;-87
2023/07/05 03:25:08;;;;;;;39.00;20.90;;;;;;;13.65;100.00;100041.13;180696;1264;43957;-87
2023/07/05 03:29:11;;;;;;;31.00;19.60;;;;;;;13.58;100.00;100034.84;180495;1264;43879;-87
2023/07/05 03:33:15;;;;;;;24.90;17.90;;;;;;;13.54;100.00;100031.68;180473;1264;43860;-87
2023/07/05 03:37:18;;;;;;;27.70;19.00;;;;;;;13.58;100.00;100032.54;180600;1264;59445;-87
2023/07/05 03:41:24;;;;;;;25.20;17.50;;;;;;;13.70;100.00;100028.20;180338;1265;43825;-87
2023/07/05 03:45:27;;;;;;;26.40;17.20;;;;;;;13.85;100.00;100027.80;180502;1265;43917;-87
2023/07/05 03:49:31;;;;;;;34.60;19.00;;;;;;;13.89;100.00;100026.34;180537;1266;43995;-87
2023/07/05 03:53:35;;;;;;;25.20;15.80;;;;;;;14.09;100.00;100022.73;180656;1264;43828;-87
2023/07/05 03:57:38;;;;;;;26.90;16.60;;;;;;;14.24;100.00;100021.40;180702;1264;59044;-87
2023/07/05 04:01:42;;;;;;;29.90;17.10;;;;;;;14.31;100.00;100018.00;180546;1265;44197;-87
2023/07/05 04:05:46;;;;;;;18.50;16.50;;;;;;;14.42;100.00;100013.13;180360;1264;43769;-87
2023/07/05 04:10:10;;;;;;;30.20;17.40;;;;;;;14.47;100.00;100002.30;180552;1258;43831;-84
2023/07/05 04:14:13;;;;;;;28.60;17.10;;;;;;;14.60;100.00;99998.30;180378;1264;251353;-84
2023/07/05 04:18:16;;;;;;;39.20;19.10;;;;;;;14.89;100.00;100002.45;180412;1264;59297;-84
2023/07/05 04:22:20;;;;;;;27.70;17.30;;;;;;;15.10;100.00;100003.02;180593;1264;44058;-84
2023/07/05 04:26:26;;;;;;;33.00;19.50;;;;;;;15.42;100.00;99998.69;180634;1263;44162;-85
2023/07/05 04:30:30;;;;;;;34.10;18.80;;;;;;;16.03;100.00;99994.52;180504;1267;43775;-85
2023/07/05 04:34:34;;;;;;;29.80;19.10;;;;;;;17.11;100.00;99987.79;180601;1264;43874;-85
2023/07/05 04:38:39;;;;;;;;;;;;;;;18.16;100.00;99983.01;180611;1264;59631;-84
2023/07/05 04:42:43;;;;;;;31.80;17.50;;;;;;;18.95;98.24;99979.53;180553;1263;43682;-85
2023/07/05 04:46:46;;;;;;;34.40;19.40;;;;;;;19.56;91.51;99972.95;180595;1267;43790;-85
2023/07/05 04:50:52;;;;;;;30.10;18.70;;;;;;;20.14;87.07;99967.33;180643;1263;43809;-85
2023/07/05 04:54:56;;;;;;;28.00;17.80;;;;;;;20.75;84.40;99968.23;180642;1264;43823;-85
2023/07/05 04:58:59;;;;;;;26.70;16.90;;;;;;;21.36;82.69;99973.53;180598;1263;57906;-85
2023/07/05 05:03:03;;;;;;;24.10;15.80;;;;;;;21.90;80.04;99971.29;180589;1264;44043;-85
2023/07/05 05:07:06;;;;;;;27.90;16.70;;;;;;;22.42;77.02;99960.70;180498;1264;44078;-85
2023/07/05 05:11:09;;;;;;;28.50;17.80;;;;;;;22.96;76.57;99968.57;180501;1263;43916;-85
2023/07/05 05:15:14;;;;;;;24.00;13.60;;;;;;;23.07;74.91;99965.89;180789;1257;43877;-87
2023/07/05 05:19:19;;;;;;;33.10;18.50;;;;;;;22.83;76.19;99974.42;180613;1263;62059;-87
2023/07/05 05:23:24;;;;;;;25.50;15.30;;;;;;;22.55;77.94;99973.60;180653;1263;43828;-86
2023/07/05 05:27:30;;;;;;;27.10;17.40;;;;;;;22.29;78.71;99971.88;180736;1267;44112;-87
2023/07/05 05:31:33;;;;;;;39.90;18.60;;;;;;;22.00;80.54;99971.91;180797;1263;43729;-86
2023/07/05 05:35:37;;;;;;;21.40;16.20;;;;;;;22.09;81.17;99965.98;180682;1263;43862;-87
2023/07/05 05:39:42;;;;;;;32.30;16.50;;;;;;;22.40;77.44;99958.36;180592;1263;58094;-87
2023/07/05 05:43:50;;;;;;;27.50;15.80;;;;;;;23.07;75.11;99948.29;180622;1265;43843;-87
2023/07/05 05:47:54;;;;;;;25.00;16.30;;;;;;;23.63;72.04;99951.30;180700;1263;43481;-87
2023/07/05 05:52:01;;;;;;;30.90;16.80;;;;;;;24.13;70.39;99945.96;180599;1264;44251;-87
2023/07/05 05:56:06;;;;;;;26.10;16.90;;;;;;;24.28;68.80;99946.03;180717;1263;43752;-87
2023/07/05 06:00:10;;;;;;;23.90;19.10;;;;;;;24.64;68.22;99942.36;180696;1264;59530;-87
2023/07/05 06:04:14;;;;;;;34.20;30.50;;;;;;;24.97;67.70;99941.98;180807;1263;43767;-86
2023/07/05 06:08:18;;;;;;;23.00;18.30;;;;;;;25.21;65.95;99935.13;180697;1263;44297;-86
2023/07/05 06:12:22;;;;;;;34.80;19.60;;;;;;;25.45;65.12;99928.58;180726;1263;44029;-87
2023/07/05 06:16:26;;;;;;;25.40;15.60;;;;;;;25.73;64.79;99929.98;180585;1260;43854;-86
2023/07/05 06:20:33;;;;;;;25.90;19.80;;;;;;;26.15;63.84;99921.64;180775;1262;59140;-86
2023/07/05 06:24:36;;;;;;;22.30;17.10;;;;;;;26.54;62.29;99911.63;180936;1262;43696;-86
2023/07/05 06:28:40;;;;;;;21.70;16.10;;;;;;;26.78;59.64;99907.63;180923;1263;44078;-86
2023/07/05 06:32:45;;;;;;;21.30;13.40;;;;;;;27.00;58.65;99907.41;180712;1262;43904;-86
2023/07/05 06:36:48;;;;;;;21.10;15.60;;;;;;;27.09;58.44;99902.95;180698;1262;43698;-86
2023/07/05 06:40:53;;;;;;;18.50;15.10;;;;;;;27.26;58.25;99899.85;180630;1262;58231;-86
2023/07/05 06:44:57;;;;;;;21.80;13.40;;;;;;;27.36;57.36;99903.23;180786;1262;43992;-86
2023/07/05 06:49:00;;;;;;;19.80;15.70;;;;;;;27.44;57.43;99895.35;180679;1262;43838;-86
2023/07/05 06:53:04;;;;;;;22.20;15.20;;;;;;;27.21;57.38;99890.69;180673;1262;43883;-86
2023/07/05 06:57:27;;;;;;;19.60;13.60;;;;;;;27.34;57.07;99888.90;180820;1262;44139;-87
2023/07/05 07:01:31;;;;;;;19.00;13.80;;;;;;;27.67;57.41;99886.45;180814;1262;60304;-86
2023/07/05 07:05:34;;;;;;;20.10;13.80;;;;;;;27.73;56.24;99881.02;180655;1262;43721;-86
2023/07/05 07:09:39;;;;;;;23.80;16.60;;;;;;;28.00;56.99;99874.24;180693;1262;43892;-87
2023/07/05 07:13:46;;;;;;;18.90;14.40;;;;;;;28.27;55.90;99874.95;180681;1266;43945;-87
2023/07/05 07:17:50;;;;;;;20.60;14.40;;;;;;;28.37;55.78;99865.66;180623;1262;43740;-86
2023/07/05 07:22:05;;;;;;;34.50;15.30;;;;;;;28.59;55.98;99853.45;180871;1260;59512;-88
2023/07/05 07:26:12;;;;;;;21.90;12.30;;;;;;;28.89;55.28;99849.02;181136;1262;43788;-86
2023/07/05 07:30:17;;;;;;;20.40;12.70;;;;;;;28.92;53.83;99848.11;181035;1262;43833;-87
2023/07/05 07:34:23;;;;;;;21.60;14.70;;;;;;;28.84;53.69;99840.20;181015;1261;44215;-87
2023/07/05 07:38:28;;;;;;;23.80;14.50;;;;;;;28.95;53.40;99835.88;180990;1262;43653;-87
2023/07/05 07:42:33;;;;;;;22.00;15.40;;;;;;;29.02;53.48;99831.95;180942;1262;60412;-87
2023/07/05 07:46:39;;;;;;;18.50;14.00;;;;;;;29.07;53.43;99824.98;180913;1262;43794;-87
2023/07/05 07:50:52;;;;;;;17.60;12.10;;;;;;;29.10;53.91;99817.90;181024;1262;43664;-87
2023/07/05 07:54:56;;;;;;;19.20;13.90;;;;;;;29.29;53.22;99815.92;181019;1262;43891;-86
2023/07/05 07:59:04;;;;;;;19.90;13.10;;;;;;;29.09;53.21;99812.46;181026;1260;43777;-87
2023/07/05 08:03:08;;;;;;;19.10;13.40;;;;;;;29.10;52.92;99815.98;180982;1262;58910;-87
2023/07/05 08:07:15;;;;;;;18.30;12.30;;;;;;;29.35;51.83;99810.42;181056;1262;43797;-88
2023/07/05 08:11:19;;;;;;;17.40;12.70;;;;;;;29.33;52.42;99806.80;180973;1261;43173;-87
2023/07/05 08:15:24;;;;;;;24.70;14.60;;;;;;;29.54;52.19;99803.39;181036;1262;44461;-87
2023/07/05 08:19:28;;;;;;;14.50;11.20;;;;;;;29.82;52.02;99803.67;180984;1262;43752;-88
2023/07/05 08:23:33;;;;;;;18.70;11.20;;;;;;;30.25;52.06;99797.19;180995;1262;59363;-86
2023/07/05 08:27:37;;;;;;;16.60;11.70;;;;;;;30.52;50.81;99795.01;180745;1263;44045;-87
2023/07/05 08:31:41;;;;;;;14.80;10.50;;;;;;;30.65;51.11;99786.50;180729;1264;43751;-87
2023/07/05 08:35:45;;;;;;;14.50;9.50;;;;;;;30.89;49.49;99782.55;180665;1263;43909;-85
2023/07/05 08:39:51;;;;;;;13.60;9.40;;;;;;;31.08;49.85;99779.98;180716;1262;44208;-91
2023/07/05 08:49:38;;;;;;;18.00;9.00;;;;;;;31.32;47.12;99772.23;181085;1262;43757;-91
2023/07/05 08:53:53;;;;;;;53.00;16.00;;;;;;;31.53;48.19;99772.69;181026;1262;43926;-91
2023/07/05 08:57:59;;;;;;;11.40;7.70;;;;;;;31.65;47.66;99763.69;180867;1262;43824;-90
2023/07/05 09:02:09;;;;;;;12.10;7.80;;;;;;;31.80;46.57;99761.50;180884;1262;43775;-91
2023/07/05 09:06:35;;;;;;;15.60;6.50;;;;;;;32.02;47.71;99759.61;180920;1262;60299;-91
2023/07/05 09:10:42;;;;;;;9.60;7.10;;;;;;;32.04;46.54;99758.89;180923;1262;43817;-91
2023/07/05 09:14:59;;;;;;;10.80;6.70;;;;;;;32.21;47.00;99758.59;181051;1262;43512;-91
2023/07/05 09:19:40;;;;;;;9.80;6.30;;;;;;;32.24;46.74;99757.41;181011;1262;43909;-89
2023/07/05 09:24:07;;;;;;;7.80;6.70;;;;;;;32.26;46.69;99753.34;180689;1267;44397;-90
2023/07/05 09:28:25;;;;;;;11.40;6.70;;;;;;;31.91;46.57;99749.33;180627;1268;58312;-92
2023/07/05 09:32:39;;;;;;;12.70;5.50;;;;;;;31.70;48.23;99749.15;180513;1268;43653;-90
2023/07/05 09:36:47;;;;;;;10.90;5.20;;;;;;;31.57;46.62;99746.08;180366;1268;43975;-90
2023/07/05 09:41:09;;;;;;;7.80;4.50;;;;;;;31.56;48.10;99746.41;180249;1267;44126;-92
2023/07/05 09:45:17;;;;;;;46.60;9.40;;;;;;;31.39;48.24;99751.07;180602;1268;43916;-91
2023/07/05 09:49:28;;;;;;;7.70;4.50;;;;;;;31.55;47.28;99748.50;180378;1268;58439;-91
2023/07/05 09:53:52;;;;;;;5.20;2.90;;;;;;;31.58;48.23;99742.77;180579;1269;43939;-92
2023/07/05 09:58:01;;;;;;;5.40;3.20;;;;;;;31.47;48.91;99737.09;180708;1264;43796;-91
2023/07/05 10:02:12;;;;;;;5.00;3.70;;;;;;;31.43;49.29;99728.80;180999;1262;43823;-91
2023/07/05 10:06:49;;;;;;;4.50;3.00;;;;;;;31.74;48.86;99724.63;181091;1262;43085;-90
2023/07/05 10:11:25;;;;;;;4.30;2.90;;;;;;;32.06;47.45;99720.37;181106;1262;60119;-91
2023/07/05 10:15:37;;;;;;;15.90;4.70;;;;;;;32.14;46.38;99715.31;181106;1262;43788;-92
2023/07/05 10:25:20;;;;;;;19.50;5.40;;;;;;;31.16;47.52;99723.95;181014;1264;43840;-90
2023/07/05 10:29:28;;;;;;;5.50;3.30;;;;;;;31.19;48.74;99718.56;180634;1264;43749;-90
2023/07/05 10:33:40;;;;;;;5.70;3.40;;;;;;;31.11;48.67;99716.48;180824;1265;59093;-90
2023/07/05 10:37:46;;;;;;;2.40;2.00;;;;;;;30.86;46.41;99710.03;180973;1264;43783;-90
2023/07/05 10:42:00;;;;;;;5.90;2.40;;;;;;;30.77;47.69;99704.27;180931;1264;43893;-91
2023/07/05 11:14:15;;;;;;;14.70;5.00;;;;;;;31.81;49.91;99700.81;172808;1265;43389;-65
2023/07/05 11:18:20;;;;;;;9.60;2.60;;;;;;;31.44;50.16;99701.70;181023;1267;58515;-65
2023/07/05 11:22:38;;;;;;;4.70;3.40;;;;;;;31.16;50.58;99700.83;181086;1266;43383;-63
2023/07/05 11:26:45;;;;;;;21.60;6.10;;;;;;;30.82;50.83;99691.64;181132;1265;43716;-63
2023/07/05 11:30:48;;;;;;;4.10;2.90;;;;;;;30.67;51.15;99687.80;181159;1265;43097;-64
2023/07/05 11:34:54;;;;;;;3.80;2.80;;;;;;;30.53;52.09;99687.45;181115;1265;43027;-63
2023/07/05 11:38:58;;;;;;;8.20;3.10;;;;;;;30.31;54.01;99680.80;181151;1265;58434;-63
2023/07/05 11:43:23;;;;;;;4.40;3.70;;;;;;;30.16;54.52;99678.36;181055;1265;43116;-65
2023/07/05 11:47:26;;;;;;;10.10;3.40;;;;;;;30.15;55.09;99670.08;181095;1265;43241;-63
2023/07/05 11:51:33;;;;;;;6.30;3.20;;;;;;;30.26;57.10;99666.30;181147;1265;43659;-65
2023/07/05 11:55:40;;;;;;;10.20;2.80;;;;;;;30.24;56.21;99661.15;181182;1265;43918;-63
2023/07/05 11:59:49;;;;;;;15.00;4.10;;;;;;;29.99;56.28;99654.84;181093;1265;59484;-63
2023/07/05 12:09:00;;;;;;;193.00;42.10;;;;;;;29.81;55.63;99644.30;181155;1265;43126;-63
2023/07/05 12:13:07;;;;;;;3.60;1.50;;;;;;;29.89;53.79;99634.84;181053;1267;43244;-64
2023/07/05 12:17:16;;;;;;;3.80;0.90;;;;;;;30.07;52.72;99630.42;181092;1266;43375;-63
2023/07/05 12:21:19;;;;;;;2.30;1.80;;;;;;;30.27;52.70;99623.08;181041;1265;58351;-62
2023/07/05 12:25:34;;;;;;;2.10;1.70;;;;;;;30.71;53.45;99620.83;181111;1266;43053;-64
2023/07/05 12:29:39;;;;;;;3.20;2.10;;;;;;;31.16;53.65;99616.29;181105;1265;43601;-63
2023/07/05 12:38:21;;;;;;;5.40;2.70;;;;;;;31.15;52.19;99605.41;181094;1265;43654;-63
2023/07/05 12:42:26;;;;;;;4.60;2.10;;;;;;;31.06;53.21;99600.48;181111;1267;58351;-63
2023/07/05 12:46:32;;;;;;;4.20;3.40;;;;;;;30.96;53.94;99604.33;181027;1265;43143;-63
2023/07/05 12:50:36;;;;;;;9.80;3.10;;;;;;;30.79;54.10;99607.54;181126;1265;43062;-63
2023/07/05 12:55:02;;;;;;;3.60;3.10;;;;;;;30.75;55.67;99608.21;181162;1266;43596;-63
2023/07/05 12:59:25;;;;;;;45.50;13.00;;;;;;;30.65;57.37;99607.67;181100;1267;43423;-63
2023/07/05 13:03:50;;;;;;;8.00;4.40;;;;;;;30.38;56.17;99614.70;181129;1265;59718;-63
2023/07/05 13:08:11;;;;;;;11.30;4.40;;;;;;;30.26;58.17;99620.35;181148;1265;43654;-64
2023/07/05 13:12:48;;;;;;;187.10;41.50;;;;;;;30.11;57.03;99629.43;181122;1266;45127;-63
2023/07/05 13:16:58;;;;;;;7.50;3.10;;;;;;;29.84;57.54;99638.66;181059;1267;43090;-62
2023/07/05 13:21:15;;;;;;;43.90;8.60;;;;;;;29.53;58.25;99647.09;181036;1267;43071;-61
2023/07/05 13:25:42;;;;;;;6.40;3.40;;;;;;;29.35;59.43;99657.61;181026;1265;57056;-60
2023/07/05 13:29:49;;;;;;;4.00;3.20;;;;;;;29.10;61.03;99664.10;181076;1269;44247;-61
2023/07/05 13:33:59;;;;;;;10.00;3.40;;;;;;;28.83;62.43;99665.39;181040;1265;43707;-62
2023/07/05 13:38:18;;;;;;;7.00;3.80;;;;;;;28.37;63.63;99664.73;181095;1267;43208;-61
2023/07/05 13:42:22;;;;;;;7.30;3.10;;;;;;;27.94;67.84;99670.55;181091;1266;43876;-61
2023/07/05 13:46:27;;;;;;;6.50;3.80;;;;;;;27.59;68.97;99683.01;181084;1265;59852;-62
2023/07/05 13:50:32;;;;;;;9.70;4.10;;;;;;;27.27;72.62;99704.45;181042;1265;43687;-61
2023/07/05 13:54:48;;;;;;;7.70;3.70;;;;;;;26.53;82.48;99719.52;180948;1267;43106;-62
2023/07/05 13:58:53;;;;;;;6.60;3.20;;;;;;;25.78;87.89;99719.98;181045;1265;43557;-62
2023/07/05 14:02:57;;;;;;;6.10;3.00;;;;;;;25.12;90.96;99714.39;181010;1266;43093;-62
2023/07/05 14:07:00;;;;;;;5.40;2.70;;;;;;;24.73;95.39;99704.23;181031;1267;58074;-62
2023/07/05 14:11:04;;;;;;;5.70;3.20;;;;;;;24.52;96.72;99701.48;181015;1267;43043;-62
2023/07/05 14:15:25;;;;;;;8.90;3.60;;;;;;;24.56;96.66;99709.80;181084;1265;43425;-65
2023/07/05 14:19:28;;;;;;;4.60;4.10;;;;;;;24.84;98.36;99712.52;181037;1267;43428;-63
2023/07/05 14:24:10;;;;;;;10.40;4.30;;;;;;;25.05;92.31;99692.45;181020;1267;43743;-62
2023/07/05 14:28:14;;;;;;;7.50;2.50;;;;;;;25.36;96.12;99691.61;181101;1267;58429;-62
2023/07/05 14:32:17;;;;;;;3.90;3.10;;;;;;;25.52;92.68;99675.70;180979;1267;43071;-62
2023/07/05 14:36:22;;;;;;;5.00;2.20;;;;;;;25.35;97.03;99675.42;181075;1265;43094;-61
2023/07/05 14:40:29;;;;;;;6.20;2.90;;;;;;;25.32;94.15;99677.27;181109;1264;43026;-61
2023/07/05 14:44:32;;;;;;;5.40;3.70;;;;;;;25.52;98.23;99672.38;181125;1265;43657;-62
2023/07/05 14:48:37;;;;;;;5.50;3.30;;;;;;;25.95;94.19;99667.73;181007;1266;58415;-61
2023/07/05 14:52:41;;;;;;;7.90;3.60;;;;;;;26.27;86.31;99662.41;181094;1265;43247;-63
2023/07/05 14:57:12;;;;;;;5.30;2.20;;;;;;;26.32;81.43;99660.82;181128;1265;43438;-60
2023/07/05 15:01:17;;;;;;;5.50;3.50;;;;;;;26.25;80.86;99659.65;181047;1267;43048;-60
2023/07/05 15:05:20;;;;;;;6.20;2.70;;;;;;;26.24;82.22;99651.95;181049;1265;44118;-61
2023/07/05 15:09:24;;;;;;;5.80;3.20;;;;;;;26.17;81.04;99638.91;181035;1267;58379;-61
2023/07/05 15:14:21;;;;;;;6.40;2.80;;;;;;;26.34;83.86;99639.63;181074;1265;43696;-63
2023/07/05 15:18:25;;;;;;;4.60;2.50;;;;;;;26.93;81.91;99641.71;181071;1266;43826;-62
2023/07/05 15:26:58;;;;;;;11.40;3.80;;;;;;;27.87;76.54;99640.00;178912;1259;81249;-61
2023/07/05 15:31:01;;;;;;;4.30;2.80;;;;;;;28.21;76.05;99649.33;181339;1262;58050;-61
2023/07/05 15:35:09;;;;;;;6.80;3.10;;;;;;;28.38;72.69;99642.91;181213;1262;43580;-62
2023/07/05 15:39:12;;;;;;;3.50;2.30;;;;;;;28.39;70.26;99639.91;181291;1262;43004;-61
2023/07/05 15:43:16;;;;;;;7.60;3.60;;;;;;;28.27;71.41;99643.48;181351;1262;44108;-60
2023/07/05 15:47:22;;;;;;;3.90;2.40;;;;;;;28.14;73.38;99649.13;181293;1262;43695;-62
2023/07/05 15:51:25;;;;;;;4.60;2.90;;;;;;;27.96;73.53;99644.61;181319;1262;58044;-69
2023/07/05 15:55:59;;;;;;;3.00;2.10;;;;;;;27.82;75.72;99648.91;181223;1262;43744;-63
2023/07/05 16:00:04;;;;;;;6.00;2.40;;;;;;;27.63;74.34;99649.45;181307;1262;43414;-63
2023/07/05 16:08:58;;;;;;;6.20;3.00;;;;;;;27.52;73.81;99645.66;175461;1264;43987;-60
2023/07/05 16:18:25;;;;;;;3.30;2.50;;;;;;;27.46;74.12;99665.86;181216;1263;43059;-61
2023/07/05 16:22:31;;;;;;;4.10;2.40;;;;;;;27.32;74.73;99673.02;181237;1264;43628;-59
2023/07/05 16:26:34;;;;;;;5.90;2.10;;;;;;;27.18;74.21;99678.60;181165;1264;43739;-60
2023/07/05 16:30:38;;;;;;;3.20;2.30;;;;;;;27.06;74.87;99686.58;181201;1264;43106;-59
2023/07/05 16:34:42;;;;;;;21.90;5.20;;;;;;;27.01;75.93;99688.88;181214;1263;59526;-60
2023/07/05 16:38:47;;;;;;;11.00;2.40;;;;;;;26.99;76.01;99686.23;181174;1264;43384;-60
2023/07/05 16:42:54;;;;;;;5.70;3.20;;;;;;;26.96;78.96;99686.97;181183;1264;43517;-59
2023/07/05 16:46:59;;;;;;;10.50;2.10;;;;;;;26.99;77.38;99682.48;181208;1264;43525;-60
2023/07/05 16:51:04;;;;;;;5.00;2.80;;;;;;;26.96;76.52;99681.11;181157;1264;42961;-59
2023/07/05 16:55:08;;;;;;;3.80;3.40;;;;;;;26.86;74.41;99674.25;181207;1264;59224;-59
2023/07/05 16:59:11;;;;;;;4.30;2.50;;;;;;;26.76;78.14;99669.38;181236;1263;43575;-59
2023/07/05 17:03:15;;;;;;;6.30;3.10;;;;;;;26.57;79.01;99677.38;181265;1263;43501;-58
2023/07/05 17:07:19;;;;;;;3.90;2.40;;;;;;;26.42;78.71;99678.33;181271;1264;43180;-59
2023/07/05 17:11:22;;;;;;;4.40;2.00;;;;;;;26.35;80.21;99685.52;181190;1263;43636;-59
2023/07/05 17:15:27;;;;;;;3.40;2.30;;;;;;;26.37;81.03;99695.31;181190;1264;58980;-60
2023/07/05 17:19:37;;;;;;;5.10;3.10;;;;;;;26.46;81.01;99700.37;181247;1264;43078;-59
2023/07/05 17:23:41;;;;;;;7.30;2.90;;;;;;;26.56;79.74;99695.83;181168;1264;43714;-60
2023/07/05 17:27:53;;;;;;;14.90;3.90;;;;;;;26.66;78.98;99700.16;181235;1264;43850;-59
2023/07/05 17:31:56;;;;;;;4.10;2.20;;;;;;;26.79;78.88;99711.39;181238;1264;43718;-59
2023/07/05 17:36:00;;;;;;;5.00;4.10;;;;;;;26.86;67.28;99709.94;181165;1263;58670;-60
2023/07/05 17:44:47;;;;;;;4.80;4.10;;;;;;;26.43;57.67;99720.41;162763;1264;44248;-61
2023/07/05 17:48:52;;;;;;;3.30;2.40;;;;;;;26.07;56.93;99722.14;181145;1264;44141;-61
2023/07/05 17:52:55;;;;;;;;;;;;;;;25.78;57.21;99729.02;181171;1263;42990;-61
2023/07/05 17:56:58;;;;;;;7.00;3.70;;;;;;;25.43;55.75;99725.59;181205;1264;58203;-61
2023/07/05 18:01:11;;;;;;;5.40;3.80;;;;;;;25.18;55.71;99729.16;181164;1263;43837;-61
2023/07/05 18:05:15;;;;;;;6.30;2.60;;;;;;;24.92;55.23;99736.75;181131;1264;43566;-61
2023/07/05 18:09:20;;;;;;;3.70;2.70;;;;;;;24.77;54.75;99739.11;181191;1263;43159;-61
2023/07/05 18:13:26;;;;;;;5.90;2.60;;;;;;;24.68;54.89;99747.13;181159;1263;43544;-61
2023/07/05 18:17:30;;;;;;;7.70;3.70;;;;;;;24.58;54.98;99754.31;181152;1263;58906;-63
2023/07/05 18:21:47;;;;;;;3.90;3.00;;;;;;;24.45;54.95;99767.46;181182;1263;43643;-61
2023/07/05 18:26:08;;;;;;;3.20;2.40;;;;;;;24.29;55.18;99772.31;181168;1264;44520;-61
2023/07/05 18:30:13;;;;;;;5.30;3.80;;;;;;;24.17;55.66;99777.90;181203;1263;43575;-61
2023/07/05 18:34:16;;;;;;;4.00;2.60;;;;;;;24.02;56.19;99789.85;181187;1263;43051;-61
2023/07/05 18:38:20;;;;;;;4.40;2.60;;;;;;;23.84;56.92;99799.40;181130;1264;58080;-61
2023/07/05 18:52:16;;;;;;;5.60;3.50;;;;;;;23.18;59.42;99836.62;167009;1264;82441;-58
2023/07/05 18:56:19;;;;;;;3.50;2.30;;;;;;;23.04;60.26;99849.08;181265;1262;43441;-58
2023/07/05 19:00:23;;;;;;;6.20;3.00;;;;;;;22.87;61.07;99854.98;181259;1266;58384;-57
2023/07/05 19:04:35;;;;;;;33.00;5.70;;;;;;;22.76;61.46;99863.55;181294;1263;43081;-57
2023/07/05 19:27:21;;;;;;;5.70;4.00;;;;;;;21.99;67.09;99906.43;146121;1262;85031;-57
2023/07/05 19:31:28;;;;;;;4.60;2.90;;;;;;;21.91;67.89;99919.06;181343;1262;43712;-59
2023/07/05 19:35:34;;;;;;;4.80;3.80;;;;;;;21.83;68.46;99926.27;181226;1262;43536;-58
2023/07/05 19:39:44;;;;;;;7.70;3.50;;;;;;;21.73;69.47;99936.39;181200;1262;43029;-58
2023/07/05 19:43:49;;;;;;;5.40;3.60;;;;;;;21.60;70.97;99944.56;181303;1262;58064;-57
2023/07/05 19:47:53;;;;;;;8.50;4.10;;;;;;;21.38;72.96;99942.33;180849;1261;90824;-84
2023/07/05 19:51:59;;;;;;;8.30;5.50;;;;;;;21.18;74.13;99941.70;180509;1263;44342;-84
2023/07/05 19:56:05;;;;;;;6.60;3.80;;;;;;;21.03;75.04;99950.93;180440;1264;44183;-84
2023/07/05 20:00:14;;;;;;;4.40;4.00;;;;;;;20.90;76.65;99961.20;180613;1264;44059;-84
2023/07/05 20:04:20;;;;;;;7.40;5.30;;;;;;;20.73;77.62;99969.87;180689;1263;58383;-84
2023/07/05 20:08:35;;;;;;;7.60;4.20;;;;;;;20.62;78.35;99982.70;180643;1263;43997;-84
2023/07/05 20:12:39;;;;;;;12.70;6.80;;;;;;;20.52;79.41;99985.60;180588;1263;43746;-84
2023/07/05 20:16:47;;;;;;;10.30;5.80;;;;;;;20.40;80.41;99986.36;180711;1262;44266;-84
2023/07/05 20:20:51;;;;;;;8.80;3.70;;;;;;;20.34;81.39;99990.85;180468;1264;43809;-83
2023/07/05 20:25:08;;;;;;;13.90;4.80;;;;;;;20.23;81.64;99996.27;180724;1263;57963;-84
2023/07/05 20:29:12;;;;;;;4.90;3.70;;;;;;;19.90;84.85;99997.39;180491;1263;44709;-84
2023/07/05 20:33:17;;;;;;;6.40;4.50;;;;;;;19.57;86.15;100003.02;180689;1263;43833;-84
2023/07/05 20:37:20;;;;;;;5.70;3.70;;;;;;;19.26;86.20;100008.79;180718;1263;43867;-84
2023/07/05 20:41:24;;;;;;;6.40;3.70;;;;;;;19.18;87.44;100012.50;180467;1263;43938;-84
2023/07/05 20:45:27;;;;;;;7.10;3.80;;;;;;;18.99;89.09;100026.48;180438;1263;57936;-84